Time;durP1;ratioP1;P1;durP2;ratioP2;P2;SDS_P1;SDS_P2;PMS_P1;PMS_P2;Temp;Humidity;BMP_temperature;BMP_pressure;BME280_temperature;BME280_humidity;BME280_pressure;Samples;Min_cycle;Max_cycle;Signal;HPM_P1;HPM_P2
2022/11/27 00:01:12;;;;;;;7.13;4.95;;;;;;;;;;5047860;28;20033;-83
2022/11/27 00:03:39;;;;;;;8.43;4.80;;;;;;;;;;5029340;28;20028;-82
2022/11/27 00:06:05;;;;;;;8.35;4.30;;;;;;;;;;5029373;28;20045;-83
2022/11/27 00:08:32;;;;;;;7.15;4.95;;;;;;;;;;5049603;28;20025;-82
2022/11/27 00:11:05;;;;;;;7.68;4.88;;;;;;;;;;5059523;28;20024;-82
2022/11/27 00:13:35;;;;;;;8.98;5.10;;;;;;;;;;5051907;28;20029;-80
2022/11/27 00:16:01;;;;;;;7.93;4.80;;;;;;;;;;5027976;28;20025;-83
2022/11/27 00:18:27;;;;;;;7.35;4.35;;;;;;;;;;5034133;28;20034;-83
2022/11/27 00:20:53;;;;;;;8.02;5.13;;;;;;;;;;5051470;28;20084;-82
2022/11/27 00:23:19;;;;;;;8.50;4.32;;;;;;;;;;5047128;28;20097;-82
2022/11/27 00:25:52;;;;;;;7.78;4.75;;;;;;;;;;5046332;28;20037;-83
2022/11/27 00:28:19;;;;;;;7.93;4.45;;;;;;;;;;5048439;28;20114;-82
2022/11/27 00:30:45;;;;;;;6.22;4.45;;;;;;;;;;5037713;28;20029;-81
2022/11/27 00:33:11;;;;;;;6.43;4.55;;;;;;;;;;5040093;28;20028;-81
2022/11/27 00:35:40;;;;;;;7.63;4.35;;;;;;;;;;5057513;28;20374;-82
2022/11/27 00:38:07;;;;;;;7.30;4.47;;;;;;;;;;5056321;28;20034;-82
2022/11/27 00:40:33;;;;;;;6.15;4.07;;;;;;;;;;5063330;28;20085;-82
2022/11/27 00:43:00;;;;;;;8.52;4.80;;;;;;;;;;5029842;28;20089;-83
2022/11/27 00:45:26;;;;;;;6.57;4.15;;;;;;;;;;5042567;28;20029;-83
2022/11/27 00:47:52;;;;;;;6.68;4.53;;;;;;;;;;5042886;28;20033;-83
2022/11/27 00:50:19;;;;;;;7.35;4.35;;;;;;;;;;5044509;28;20410;-83
2022/11/27 00:52:45;;;;;;;7.32;4.30;;;;;;;;;;5048735;28;20033;-83
2022/11/27 00:55:11;;;;;;;9.25;4.10;;;;;;;;;;5053391;28;20021;-83
2022/11/27 00:57:47;;;;;;;6.07;3.85;;;;;;;;;;5048431;28;20076;-84
2022/11/27 01:00:14;;;;;;;7.65;3.85;;;;;;;;;;5040451;28;20045;-83
2022/11/27 01:02:40;;;;;;;7.07;4.07;;;;;;;;;;5045070;28;20087;-82
2022/11/27 01:05:08;;;;;;;5.88;4.00;;;;;;;;;;5025856;28;20033;-84
2022/11/27 01:07:36;;;;;;;5.85;4.03;;;;;;;;;;5027419;28;20028;-83
2022/11/27 01:10:03;;;;;;;5.95;4.18;;;;;;;;;;5053930;28;20022;-83
2022/11/27 01:12:29;;;;;;;6.15;3.58;;;;;;;;;;5043723;28;20037;-83
2022/11/27 01:14:55;;;;;;;5.28;3.00;;;;;;;;;;5045232;28;20028;-84
2022/11/27 01:17:21;;;;;;;4.72;3.30;;;;;;;;;;5027567;28;20417;-82
2022/11/27 01:19:47;;;;;;;4.95;3.33;;;;;;;;;;5046848;28;20033;-83
2022/11/27 01:22:13;;;;;;;4.72;3.00;;;;;;;;;;5053001;28;20029;-82
2022/11/27 01:24:39;;;;;;;5.15;3.17;;;;;;;;;;5054977;28;20026;-81
2022/11/27 01:27:05;;;;;;;6.90;3.25;;;;;;;;;;5055774;28;20026;-80
2022/11/27 01:29:31;;;;;;;5.35;3.03;;;;;;;;;;5058114;28;20835;-80
2022/11/27 01:31:57;;;;;;;3.38;3.08;;;;;;;;;;5057944;28;20231;-79
2022/11/27 01:34:23;;;;;;;4.10;2.80;;;;;;;;;;5055103;28;20026;-80
2022/11/27 01:36:50;;;;;;;3.70;2.80;;;;;;;;;;5054305;28;20089;-82
2022/11/27 01:39:17;;;;;;;5.43;2.97;;;;;;;;;;5048179;28;20033;-82
2022/11/27 01:41:44;;;;;;;3.30;2.58;;;;;;;;;;5058243;28;20037;-83
2022/11/27 01:44:26;;;;;;;4.88;2.90;;;;;;;;;;5082633;22;20044;-78
2022/11/27 01:46:56;;;;;;;4.57;2.95;;;;;;;;;;5042111;28;20021;-77
2022/11/27 01:49:29;;;;;;;4.95;2.50;;;;;;;;;;5053269;28;20033;-79
2022/11/27 01:52:03;;;;;;;3.47;2.50;;;;;;;;;;5053023;28;20052;-78
2022/11/27 01:54:32;;;;;;;3.95;2.83;;;;;;;;;;5052976;28;20086;-78
2022/11/27 01:57:00;;;;;;;4.35;2.80;;;;;;;;;;5052159;28;20079;-80
2022/11/27 01:59:26;;;;;;;4.32;2.50;;;;;;;;;;5013984;28;20053;-77
2022/11/27 02:01:52;;;;;;;3.42;2.58;;;;;;;;;;5013184;28;20069;-77
2022/11/27 02:04:21;;;;;;;4.20;2.30;;;;;;;;;;5010449;28;20113;-79
2022/11/27 02:06:48;;;;;;;4.13;2.47;;;;;;;;;;5012707;28;20430;-78
2022/11/27 02:09:14;;;;;;;2.95;2.20;;;;;;;;;;5043717;28;20032;-79
2022/11/27 02:11:52;;;;;;;3.17;2.33;;;;;;;;;;5045403;28;20075;-78
2022/11/27 02:14:36;;;;;;;4.75;2.28;;;;;;;;;;5051925;28;20396;-79
2022/11/27 02:17:09;;;;;;;3.20;2.30;;;;;;;;;;5052042;28;20025;-78
2022/11/27 02:19:44;;;;;;;3.55;2.20;;;;;;;;;;5038339;28;20585;-79
2022/11/27 02:22:10;;;;;;;4.53;2.28;;;;;;;;;;5033548;28;20061;-79
2022/11/27 02:24:55;;;;;;;4.88;2.92;;;;;;;;;;5032828;28;20029;-77
2022/11/27 02:27:27;;;;;;;5.63;3.13;;;;;;;;;;5032117;28;20132;-78
2022/11/27 02:29:56;;;;;;;4.50;3.00;;;;;;;;;;5033362;28;20037;-79
2022/11/27 02:32:26;;;;;;;3.47;2.50;;;;;;;;;;5016261;28;20056;-78
2022/11/27 02:35:03;;;;;;;5.00;2.85;;;;;;;;;;5042616;28;20029;-77
2022/11/27 02:37:35;;;;;;;3.83;2.85;;;;;;;;;;5047116;28;20036;-77
2022/11/27 02:40:04;;;;;;;3.97;2.85;;;;;;;;;;5046507;28;20020;-77
2022/11/27 02:42:32;;;;;;;5.82;2.63;;;;;;;;;;5033079;28;20035;-78
2022/11/27 02:45:00;;;;;;;3.80;2.53;;;;;;;;;;5031645;28;20052;-78
2022/11/27 02:47:27;;;;;;;4.93;2.90;;;;;;;;;;5032104;28;20056;-78
2022/11/27 02:49:55;;;;;;;5.20;2.38;;;;;;;;;;5032787;28;20494;-80
2022/11/27 02:52:22;;;;;;;5.45;2.95;;;;;;;;;;5032548;28;20027;-79
2022/11/27 02:54:50;;;;;;;4.22;2.58;;;;;;;;;;5031797;28;20025;-78
2022/11/27 02:57:17;;;;;;;4.97;2.78;;;;;;;;;;5031747;28;20026;-78
2022/11/27 02:59:44;;;;;;;6.95;2.75;;;;;;;;;;5036992;28;20064;-77
2022/11/27 03:02:16;;;;;;;6.35;2.95;;;;;;;;;;5033560;28;20059;-78
2022/11/27 03:04:47;;;;;;;3.38;2.35;;;;;;;;;;5051522;28;20112;-78
2022/11/27 03:07:24;;;;;;;6.25;3.40;;;;;;;;;;5051317;28;20021;-78
2022/11/27 03:09:56;;;;;;;7.20;3.47;;;;;;;;;;5045744;28;20034;-78
2022/11/27 03:12:22;;;;;;;8.40;3.10;;;;;;;;;;5050286;28;20029;-81
2022/11/27 03:14:48;;;;;;;5.50;2.97;;;;;;;;;;5051499;28;20432;-78
2022/11/27 03:17:14;;;;;;;4.80;2.92;;;;;;;;;;5050958;28;20086;-79
2022/11/27 03:19:52;;;;;;;5.95;2.97;;;;;;;;;;5051986;28;20028;-79
2022/11/27 03:22:19;;;;;;;7.53;3.28;;;;;;;;;;4995213;28;20030;-80
2022/11/27 03:24:45;;;;;;;6.07;2.75;;;;;;;;;;4994101;28;20041;-79
2022/11/27 03:27:14;;;;;;;4.28;2.72;;;;;;;;;;4997071;28;20022;-79
2022/11/27 03:29:49;;;;;;;4.68;2.40;;;;;;;;;;5016667;28;20037;-77
2022/11/27 03:32:16;;;;;;;2.92;2.20;;;;;;;;;;5051560;28;20033;-78
2022/11/27 03:34:42;;;;;;;4.68;2.90;;;;;;;;;;5056249;28;20543;-76
2022/11/27 03:37:08;;;;;;;2.92;2.08;;;;;;;;;;5055772;28;20063;-77
2022/11/27 03:39:35;;;;;;;3.03;2.33;;;;;;;;;;5051214;28;20021;-77
2022/11/27 03:42:06;;;;;;;4.18;2.70;;;;;;;;;;5050197;28;20057;-78
2022/11/27 03:44:44;;;;;;;5.13;2.97;;;;;;;;;;5055244;28;20048;-78
2022/11/27 03:47:10;;;;;;;5.95;2.92;;;;;;;;;;5055175;28;20029;-78
2022/11/27 03:49:36;;;;;;;7.45;3.35;;;;;;;;;;5055612;28;20055;-78
2022/11/27 03:52:21;;;;;;;4.40;2.88;;;;;;;;;;5044889;28;20029;-78
2022/11/27 03:55:06;;;;;;;6.30;2.95;;;;;;;;;;5035425;28;20033;-79
2022/11/27 03:57:45;;;;;;;6.03;3.20;;;;;;;;;;5035587;28;20038;-79
2022/11/27 04:00:11;;;;;;;5.85;2.90;;;;;;;;;;5037767;28;20394;-77
2022/11/27 04:02:45;;;;;;;4.90;3.15;;;;;;;;;;5053108;28;20024;-78
2022/11/27 04:05:12;;;;;;;5.90;3.33;;;;;;;;;;5060001;28;20385;-78
2022/11/27 04:07:38;;;;;;;4.88;3.42;;;;;;;;;;5057855;28;20033;-79
2022/11/27 04:10:05;;;;;;;6.00;3.08;;;;;;;;;;5037727;28;20083;-79
2022/11/27 04:12:31;;;;;;;4.05;2.63;;;;;;;;;;5036463;28;20049;-78
2022/11/27 04:15:00;;;;;;;5.85;3.55;;;;;;;;;;5038829;28;20033;-80
2022/11/27 04:17:26;;;;;;;6.03;3.38;;;;;;;;;;5035463;28;20041;-76
2022/11/27 04:19:52;;;;;;;5.55;3.40;;;;;;;;;;5034910;28;20036;-77
2022/11/27 04:22:18;;;;;;;7.22;3.58;;;;;;;;;;5041014;28;20025;-77
2022/11/27 04:24:44;;;;;;;3.60;2.60;;;;;;;;;;5035078;28;20030;-78
2022/11/27 04:27:14;;;;;;;4.25;2.80;;;;;;;;;;5034866;28;20033;-78
2022/11/27 04:29:40;;;;;;;5.20;3.50;;;;;;;;;;5054855;28;20020;-80
2022/11/27 04:32:06;;;;;;;5.13;3.13;;;;;;;;;;5048734;28;20475;-78
2022/11/27 04:34:32;;;;;;;5.10;3.42;;;;;;;;;;5054121;28;20033;-78
2022/11/27 04:36:58;;;;;;;5.28;3.67;;;;;;;;;;5053552;28;20109;-80
2022/11/27 04:39:24;;;;;;;7.97;3.92;;;;;;;;;;5052301;28;20446;-79
2022/11/27 04:41:50;;;;;;;6.85;4.10;;;;;;;;;;5048151;28;20503;-79
2022/11/27 04:44:17;;;;;;;5.75;3.88;;;;;;;;;;5053424;28;20040;-79
2022/11/27 04:46:43;;;;;;;5.07;3.70;;;;;;;;;;5036589;28;20029;-80
2022/11/27 04:49:12;;;;;;;7.00;4.03;;;;;;;;;;5054627;28;20410;-78
2022/11/27 04:51:38;;;;;;;6.65;4.03;;;;;;;;;;5054447;28;20104;-77
2022/11/27 04:54:04;;;;;;;5.00;3.30;;;;;;;;;;5053589;28;20029;-78
2022/11/27 04:56:30;;;;;;;6.68;4.28;;;;;;;;;;5053937;28;20025;-78
2022/11/27 04:58:56;;;;;;;6.70;3.67;;;;;;;;;;5035909;28;20021;-77
2022/11/27 05:01:22;;;;;;;5.35;4.00;;;;;;;;;;5036169;28;20470;-78
2022/11/27 05:03:48;;;;;;;6.15;4.22;;;;;;;;;;5053457;28;20041;-78
2022/11/27 05:06:14;;;;;;;7.28;4.60;;;;;;;;;;5053289;28;20029;-77
2022/11/27 05:08:41;;;;;;;4.93;3.15;;;;;;;;;;5053749;28;20028;-76
2022/11/27 05:11:11;;;;;;;4.25;2.95;;;;;;;;;;5027389;28;20029;-77
2022/11/27 05:13:38;;;;;;;6.05;3.47;;;;;;;;;;5052059;28;20231;-76
2022/11/27 05:16:04;;;;;;;5.78;4.00;;;;;;;;;;5052575;28;20041;-77
2022/11/27 05:18:30;;;;;;;6.75;3.78;;;;;;;;;;5053362;28;20040;-76
2022/11/27 05:21:00;;;;;;;5.90;4.07;;;;;;;;;;5017835;28;20064;-77
2022/11/27 05:23:27;;;;;;;4.90;3.35;;;;;;;;;;5033248;28;20112;-77
2022/11/27 05:25:53;;;;;;;5.60;3.40;;;;;;;;;;5032941;28;20029;-76
2022/11/27 05:28:20;;;;;;;5.82;3.03;;;;;;;;;;5033056;28;20040;-77
2022/11/27 05:30:46;;;;;;;5.85;3.80;;;;;;;;;;5033463;28;20434;-78
2022/11/27 05:33:12;;;;;;;6.28;3.67;;;;;;;;;;5037038;28;20029;-77
2022/11/27 05:35:38;;;;;;;4.82;3.63;;;;;;;;;;5052867;28;20020;-78
2022/11/27 05:38:04;;;;;;;5.40;3.50;;;;;;;;;;5052531;28;20025;-78
2022/11/27 05:40:30;;;;;;;5.47;3.55;;;;;;;;;;5043861;28;20057;-78
2022/11/27 05:42:56;;;;;;;6.53;4.00;;;;;;;;;;5051900;28;20025;-77
2022/11/27 05:45:23;;;;;;;6.15;3.75;;;;;;;;;;5052821;28;20025;-77
2022/11/27 05:47:49;;;;;;;5.25;3.45;;;;;;;;;;5052136;28;20049;-77
2022/11/27 05:50:15;;;;;;;4.20;3.60;;;;;;;;;;5052162;28;20116;-77
2022/11/27 05:52:41;;;;;;;5.95;3.63;;;;;;;;;;5052823;28;20432;-77
2022/11/27 05:55:07;;;;;;;5.90;3.65;;;;;;;;;;5034379;28;20037;-77
2022/11/27 05:57:33;;;;;;;5.65;3.45;;;;;;;;;;5032153;28;20072;-77
2022/11/27 05:59:59;;;;;;;4.20;3.05;;;;;;;;;;5033155;28;20034;-76
2022/11/27 06:02:26;;;;;;;6.32;3.05;;;;;;;;;;5033088;28;20021;-77
2022/11/27 06:04:52;;;;;;;6.25;3.40;;;;;;;;;;5032899;28;20014;-75
2022/11/27 06:07:18;;;;;;;5.00;3.03;;;;;;;;;;5032200;28;20490;-76
2022/11/27 06:09:44;;;;;;;5.20;3.60;;;;;;;;;;5041147;28;20215;-76
2022/11/27 06:12:10;;;;;;;4.20;2.85;;;;;;;;;;5049051;28;20104;-75
2022/11/27 06:14:36;;;;;;;7.22;3.13;;;;;;;;;;5051791;28;20032;-76
2022/11/27 06:17:02;;;;;;;7.70;3.15;;;;;;;;;;5052329;28;20024;-76
2022/11/27 06:19:28;;;;;;;5.20;2.55;;;;;;;;;;5052690;28;20029;-76
2022/11/27 06:21:54;;;;;;;3.28;2.53;;;;;;;;;;5053394;28;20402;-78
2022/11/27 06:24:21;;;;;;;3.22;2.63;;;;;;;;;;5052193;28;20417;-78
2022/11/27 06:26:47;;;;;;;4.22;2.75;;;;;;;;;;5061941;28;20021;-78
2022/11/27 06:29:13;;;;;;;4.13;2.65;;;;;;;;;;5071677;28;20033;-78
2022/11/27 06:31:40;;;;;;;3.67;2.65;;;;;;;;;;5052420;28;20397;-78
2022/11/27 06:34:06;;;;;;;4.72;2.72;;;;;;;;;;5052254;28;20029;-77
2022/11/27 06:36:34;;;;;;;4.10;2.45;;;;;;;;;;5051126;28;20057;-77
2022/11/27 06:39:00;;;;;;;4.53;2.72;;;;;;;;;;5033281;28;20044;-76
2022/11/27 06:41:27;;;;;;;4.70;2.80;;;;;;;;;;5043728;28;20025;-76
2022/11/27 06:43:53;;;;;;;3.50;2.10;;;;;;;;;;5052095;28;20057;-77
2022/11/27 06:46:20;;;;;;;3.97;2.90;;;;;;;;;;5050739;28;20428;-77
2022/11/27 06:48:47;;;;;;;4.13;2.53;;;;;;;;;;5034028;28;20074;-76
2022/11/27 06:51:15;;;;;;;4.50;2.88;;;;;;;;;;5051855;28;20025;-77
2022/11/27 06:53:41;;;;;;;3.60;2.50;;;;;;;;;;5052033;28;20017;-76
2022/11/27 06:56:09;;;;;;;3.72;2.63;;;;;;;;;;5041481;28;20053;-78
2022/11/27 06:58:35;;;;;;;5.72;2.95;;;;;;;;;;5031922;28;20441;-76
2022/11/27 07:01:03;;;;;;;3.47;2.70;;;;;;;;;;5031749;28;20029;-78
2022/11/27 07:03:29;;;;;;;3.85;2.97;;;;;;;;;;5032074;28;20076;-76
2022/11/27 07:05:55;;;;;;;4.80;3.65;;;;;;;;;;5027550;28;20435;-79
2022/11/27 07:08:21;;;;;;;5.72;4.28;;;;;;;;;;5024882;28;20034;-79
2022/11/27 07:10:47;;;;;;;6.75;3.47;;;;;;;;;;5048594;28;20119;-80
2022/11/27 07:13:13;;;;;;;5.78;3.45;;;;;;;;;;5034032;28;20483;-80
2022/11/27 07:15:39;;;;;;;5.38;3.60;;;;;;;;;;5056756;28;20035;-79
2022/11/27 07:18:05;;;;;;;7.10;3.42;;;;;;;;;;5053542;28;20047;-80
2022/11/27 07:20:32;;;;;;;4.45;3.45;;;;;;;;;;5055707;28;20017;-80
2022/11/27 07:22:58;;;;;;;5.40;3.42;;;;;;;;;;5059656;28;20033;-80
2022/11/27 07:25:24;;;;;;;3.85;3.22;;;;;;;;;;5043662;28;20025;-81
2022/11/27 07:27:50;;;;;;;6.00;3.53;;;;;;;;;;5037126;28;20424;-80
2022/11/27 07:30:16;;;;;;;4.80;3.38;;;;;;;;;;5035166;28;20080;-79
2022/11/27 07:32:42;;;;;;;6.35;3.90;;;;;;;;;;5034363;28;20052;-80
2022/11/27 07:35:08;;;;;;;5.75;3.92;;;;;;;;;;5032068;28;20025;-80
2022/11/27 07:37:35;;;;;;;6.55;4.18;;;;;;;;;;5031740;28;20028;-80
2022/11/27 07:40:01;;;;;;;9.10;4.75;;;;;;;;;;5047610;28;20033;-80
2022/11/27 07:42:28;;;;;;;7.80;5.47;;;;;;;;;;5034523;28;20021;-80
2022/11/27 07:44:54;;;;;;;9.02;5.55;;;;;;;;;;5015145;28;20083;-79
2022/11/27 07:47:20;;;;;;;9.25;5.88;;;;;;;;;;5014838;28;20029;-80
2022/11/27 07:49:46;;;;;;;8.07;5.30;;;;;;;;;;5015387;28;20029;-80
2022/11/27 07:52:12;;;;;;;9.73;5.13;;;;;;;;;;5041310;28;20367;-79
2022/11/27 07:54:38;;;;;;;6.07;4.60;;;;;;;;;;5018170;28;20033;-80
2022/11/27 07:57:04;;;;;;;9.05;5.47;;;;;;;;;;5032947;28;20116;-79
2022/11/27 07:59:30;;;;;;;5.80;4.47;;;;;;;;;;5036805;28;20026;-78
2022/11/27 08:01:56;;;;;;;8.02;4.85;;;;;;;;;;5028590;28;20070;-80
2022/11/27 08:04:26;;;;;;;7.78;4.70;;;;;;;;;;5027637;28;20071;-79
2022/11/27 08:06:52;;;;;;;7.50;4.75;;;;;;;;;;5031186;28;20032;-79
2022/11/27 08:09:18;;;;;;;7.90;5.30;;;;;;;;;;5030175;28;20081;-78
2022/11/27 08:11:44;;;;;;;7.63;4.93;;;;;;;;;;5032146;28;20014;-78
2022/11/27 08:14:12;;;;;;;8.80;5.10;;;;;;;;;;5043505;28;20024;-79
2022/11/27 08:16:38;;;;;;;9.05;4.60;;;;;;;;;;5030853;28;20033;-79
2022/11/27 08:19:04;;;;;;;6.07;4.93;;;;;;;;;;5018949;28;20030;-78
2022/11/27 08:21:31;;;;;;;8.13;5.53;;;;;;;;;;5036427;28;20024;-79
2022/11/27 08:23:57;;;;;;;8.07;4.70;;;;;;;;;;5036570;28;20017;-79
2022/11/27 08:26:26;;;;;;;9.95;4.45;;;;;;;;;;5037203;28;20076;-78
2022/11/27 08:28:52;;;;;;;7.35;5.28;;;;;;;;;;5048624;28;20104;-78
2022/11/27 08:31:22;;;;;;;6.40;4.78;;;;;;;;;;5020094;28;20135;-77
2022/11/27 08:33:48;;;;;;;7.07;5.22;;;;;;;;;;5038651;28;20533;-77
2022/11/27 08:36:14;;;;;;;8.05;4.88;;;;;;;;;;5058863;28;20025;-77
2022/11/27 08:38:41;;;;;;;6.07;4.57;;;;;;;;;;5021269;28;20080;-78
2022/11/27 08:41:10;;;;;;;5.03;4.05;;;;;;;;;;5037459;28;20490;-78
2022/11/27 08:43:36;;;;;;;6.00;4.40;;;;;;;;;;5019314;28;20033;-78
2022/11/27 08:46:06;;;;;;;6.10;4.22;;;;;;;;;;5039356;28;20131;-77
2022/11/27 08:48:32;;;;;;;6.10;4.65;;;;;;;;;;5037163;28;20147;-77
2022/11/27 08:50:59;;;;;;;8.38;4.53;;;;;;;;;;5038905;28;20022;-77
2022/11/27 08:53:25;;;;;;;5.78;3.97;;;;;;;;;;5036295;28;20028;-78
2022/11/27 08:55:51;;;;;;;6.88;5.22;;;;;;;;;;5012704;28;20059;-77
2022/11/27 08:58:17;;;;;;;7.05;4.63;;;;;;;;;;5056082;28;20421;-78
2022/11/27 09:00:46;;;;;;;5.95;4.45;;;;;;;;;;5051651;28;20021;-77
2022/11/27 09:03:12;;;;;;;6.30;4.10;;;;;;;;;;5018911;28;20478;-77
2022/11/27 09:05:41;;;;;;;6.65;3.83;;;;;;;;;;5022485;28;20021;-77
2022/11/27 09:08:07;;;;;;;5.15;4.10;;;;;;;;;;5041223;28;20157;-79
2022/11/27 09:10:37;;;;;;;4.22;3.60;;;;;;;;;;5028925;28;20178;-78
2022/11/27 09:13:03;;;;;;;6.65;3.83;;;;;;;;;;5039682;28;20048;-78
2022/11/27 09:15:29;;;;;;;8.57;3.35;;;;;;;;;;5022869;28;20502;-79
2022/11/27 09:17:55;;;;;;;4.93;3.88;;;;;;;;;;5039731;28;20056;-79
2022/11/27 09:20:21;;;;;;;4.78;3.83;;;;;;;;;;5039527;28;20033;-79
2022/11/27 09:22:47;;;;;;;4.68;2.90;;;;;;;;;;5036500;28;20082;-80
2022/11/27 09:25:13;;;;;;;5.60;3.75;;;;;;;;;;5035308;28;20390;-80
2022/11/27 09:27:39;;;;;;;4.60;2.97;;;;;;;;;;5033946;28;20075;-78
2022/11/27 09:30:07;;;;;;;3.42;2.75;;;;;;;;;;5035792;28;20425;-78
2022/11/27 09:32:33;;;;;;;4.15;2.80;;;;;;;;;;5036144;28;20028;-78
2022/11/27 09:34:59;;;;;;;3.60;2.38;;;;;;;;;;5035706;28;20113;-78
2022/11/27 09:37:25;;;;;;;2.72;2.30;;;;;;;;;;5035542;28;20045;-78
2022/11/27 09:39:54;;;;;;;3.25;2.40;;;;;;;;;;5027994;28;20025;-77
2022/11/27 09:42:43;;;;;;;7.72;4.10;;;;;;;;;;5041445;28;20396;-78
2022/11/27 09:45:13;;;;;;;4.10;3.65;;;;;;;;;;5028607;28;20046;-77
2022/11/27 09:47:42;;;;;;;5.40;3.55;;;;;;;;;;5019576;28;20458;-78
2022/11/27 09:50:17;;;;;;;5.45;4.07;;;;;;;;;;5036115;28;20167;-78
2022/11/27 09:52:48;;;;;;;5.20;2.97;;;;;;;;;;5034282;28;20037;-78
2022/11/27 09:55:17;;;;;;;5.07;3.60;;;;;;;;;;5029705;28;20067;-78
2022/11/27 09:57:49;;;;;;;5.45;4.07;;;;;;;;;;5053986;28;20809;-78
2022/11/27 10:00:19;;;;;;;6.13;4.47;;;;;;;;;;5038007;28;20460;-78
2022/11/27 10:02:46;;;;;;;6.15;4.60;;;;;;;;;;5055051;28;20025;-78
2022/11/27 10:05:15;;;;;;;5.57;3.90;;;;;;;;;;5055182;28;20108;-78
2022/11/27 10:08:01;;;;;;;6.55;4.45;;;;;;;;;;5021190;28;20022;-79
2022/11/27 10:10:27;;;;;;;6.90;4.40;;;;;;;;;;5053565;28;20029;-77
2022/11/27 10:13:13;;;;;;;4.72;3.72;;;;;;;;;;5034690;28;20036;-77
2022/11/27 10:15:39;;;;;;;4.13;3.35;;;;;;;;;;5057972;28;20417;-78
2022/11/27 10:18:17;;;;;;;5.28;3.58;;;;;;;;;;5055396;28;20032;-78
2022/11/27 10:20:48;;;;;;;7.10;4.95;;;;;;;;;;5055207;28;20435;-78
2022/11/27 10:23:18;;;;;;;2.50;2.30;;;;;;;;;;5056452;28;20060;-78
2022/11/27 10:25:51;;;;;;;3.95;2.63;;;;;;;;;;5054200;28;20024;-78
2022/11/27 10:28:41;;;;;;;3.25;2.72;;;;;;;;;;5055211;28;20029;-78
2022/11/27 10:31:16;;;;;;;3.30;2.75;;;;;;;;;;5075392;28;20031;-78
2022/11/27 10:33:48;;;;;;;3.80;2.63;;;;;;;;;;5039795;28;20033;-78
2022/11/27 10:36:17;;;;;;;4.68;2.90;;;;;;;;;;5033727;28;20474;-78
2022/11/27 10:38:44;;;;;;;4.10;2.85;;;;;;;;;;5018468;28;20033;-78
2022/11/27 10:41:13;;;;;;;4.05;3.10;;;;;;;;;;5043087;28;20089;-77
2022/11/27 10:43:39;;;;;;;6.80;2.75;;;;;;;;;;5036811;28;20093;-77
2022/11/27 10:46:12;;;;;;;3.78;2.38;;;;;;;;;;5032401;28;20471;-78
2022/11/27 10:48:38;;;;;;;3.97;2.75;;;;;;;;;;5034899;28;20052;-79
2022/11/27 10:51:12;;;;;;;3.33;2.25;;;;;;;;;;5038844;28;20026;-79
2022/11/27 10:53:40;;;;;;;2.72;2.13;;;;;;;;;;5039340;28;20036;-79
2022/11/27 10:56:13;;;;;;;3.47;2.50;;;;;;;;;;5021095;28;20097;-79
2022/11/27 10:58:40;;;;;;;3.38;2.40;;;;;;;;;;5036939;28;20482;-79
2022/11/27 11:01:07;;;;;;;4.28;2.78;;;;;;;;;;5048405;28;20486;-78
2022/11/27 11:03:34;;;;;;;2.58;2.38;;;;;;;;;;5034934;28;20056;-78
2022/11/27 11:06:04;;;;;;;3.28;2.40;;;;;;;;;;5033894;28;20093;-79
2022/11/27 11:08:31;;;;;;;2.67;1.90;;;;;;;;;;5037160;28;20542;-78
2022/11/27 11:10:59;;;;;;;2.63;2.15;;;;;;;;;;5045951;28;20029;-79
2022/11/27 11:13:29;;;;;;;3.65;2.58;;;;;;;;;;5054178;28;20112;-80
2022/11/27 11:16:07;;;;;;;4.20;2.70;;;;;;;;;;5048273;28;20030;-80
2022/11/27 11:18:43;;;;;;;3.60;2.95;;;;;;;;;;5035035;28;20521;-78
2022/11/27 11:21:15;;;;;;;4.35;3.00;;;;;;;;;;5032645;28;20060;-78
2022/11/27 11:23:41;;;;;;;4.00;3.05;;;;;;;;;;5034897;28;20430;-78
2022/11/27 11:26:33;;;;;;;4.93;3.50;;;;;;;;;;5034301;28;20032;-79
2022/11/27 11:29:01;;;;;;;3.67;2.92;;;;;;;;;;5031077;28;20029;-78
2022/11/27 11:31:30;;;;;;;5.97;3.90;;;;;;;;;;5034462;28;20060;-78
2022/11/27 11:33:58;;;;;;;4.35;3.50;;;;;;;;;;5038659;28;20064;-78
2022/11/27 11:36:24;;;;;;;4.57;3.60;;;;;;;;;;5042708;28;20029;-77
2022/11/27 11:38:51;;;;;;;5.65;4.25;;;;;;;;;;5048182;28;20021;-77
2022/11/27 11:41:18;;;;;;;4.18;3.50;;;;;;;;;;5041614;28;20076;-79
2022/11/27 11:44:00;;;;;;;4.47;3.50;;;;;;;;;;5034405;28;20057;-77
2022/11/27 11:46:29;;;;;;;4.88;3.65;;;;;;;;;;5048038;28;20078;-78
2022/11/27 11:49:05;;;;;;;5.32;3.80;;;;;;;;;;5078119;28;20044;-79
2022/11/27 11:51:41;;;;;;;4.90;3.67;;;;;;;;;;5061443;28;20033;-78
2022/11/27 11:54:26;;;;;;;5.20;3.63;;;;;;;;;;5077196;28;20033;-78
2022/11/27 11:56:53;;;;;;;4.63;3.63;;;;;;;;;;5070624;28;20353;-78
2022/11/27 11:59:25;;;;;;;4.57;3.92;;;;;;;;;;5058363;28;20557;-78
2022/11/27 12:02:09;;;;;;;6.45;4.32;;;;;;;;;;5053916;28;20029;-78
2022/11/27 12:05:05;;;;;;;5.43;3.90;;;;;;;;;;5046809;28;20025;-79
2022/11/27 12:07:45;;;;;;;4.90;3.35;;;;;;;;;;5009874;28;20569;-79
2022/11/27 12:10:15;;;;;;;4.75;4.00;;;;;;;;;;5053037;28;20032;-79
2022/11/27 12:12:52;;;;;;;6.20;4.95;;;;;;;;;;5033844;28;20548;-78
2022/11/27 12:15:24;;;;;;;7.03;4.78;;;;;;;;;;5058820;28;20033;-79
2022/11/27 12:18:07;;;;;;;6.43;4.85;;;;;;;;;;5055244;28;20089;-78
2022/11/27 12:20:46;;;;;;;7.60;4.80;;;;;;;;;;5037944;28;20033;-78
2022/11/27 12:23:24;;;;;;;6.13;4.57;;;;;;;;;;5038527;28;20051;-79
2022/11/27 12:25:54;;;;;;;6.95;4.82;;;;;;;;;;5038981;28;20053;-78
2022/11/27 12:28:27;;;;;;;6.38;4.60;;;;;;;;;;5041548;28;20024;-79
2022/11/27 12:31:04;;;;;;;6.50;4.70;;;;;;;;;;5042347;28;20085;-79
2022/11/27 12:33:35;;;;;;;6.40;4.28;;;;;;;;;;5029292;28;20032;-79
2022/11/27 12:36:12;;;;;;;6.53;4.82;;;;;;;;;;5038594;28;20095;-79
2022/11/27 12:38:54;;;;;;;6.97;5.15;;;;;;;;;;5038763;28;20398;-78
2022/11/27 12:41:20;;;;;;;7.00;4.65;;;;;;;;;;5046062;28;20017;-79
2022/11/27 12:43:58;;;;;;;8.15;5.32;;;;;;;;;;5033582;28;20401;-78
2022/11/27 12:46:43;;;;;;;6.72;4.57;;;;;;;;;;5036540;28;20083;-80
2022/11/27 12:49:26;;;;;;;7.22;5.07;;;;;;;;;;5036380;28;20032;-78
2022/11/27 12:52:01;;;;;;;7.15;5.82;;;;;;;;;;5037941;28;20378;-79
2022/11/27 12:54:32;;;;;;;8.38;5.43;;;;;;;;;;5037073;28;20021;-78
2022/11/27 12:56:59;;;;;;;6.72;5.00;;;;;;;;;;5036118;28;20596;-79
2022/11/27 12:59:30;;;;;;;6.88;5.50;;;;;;;;;;5037218;28;21488;-79
2022/11/27 13:02:04;;;;;;;9.95;6.70;;;;;;;;;;5041900;28;20025;-79
2022/11/27 13:04:41;;;;;;;9.73;5.88;;;;;;;;;;5038269;28;20029;-79
2022/11/27 13:07:10;;;;;;;9.40;5.82;;;;;;;;;;5037538;28;20025;-79
2022/11/27 13:09:50;;;;;;;6.35;4.85;;;;;;;;;;5053401;28;20040;-79
2022/11/27 13:12:26;;;;;;;8.27;6.00;;;;;;;;;;5057224;28;20076;-79
2022/11/27 13:15:00;;;;;;;8.93;5.95;;;;;;;;;;5061062;28;20068;-79
2022/11/27 13:17:29;;;;;;;6.43;5.05;;;;;;;;;;5037559;28;20025;-79
2022/11/27 13:19:55;;;;;;;6.90;5.22;;;;;;;;;;5038621;28;20026;-79
2022/11/27 13:22:26;;;;;;;5.65;4.47;;;;;;;;;;5038276;28;20026;-79
2022/11/27 13:24:52;;;;;;;8.63;5.95;;;;;;;;;;5036430;28;20116;-78
2022/11/27 13:27:22;;;;;;;9.15;7.05;;;;;;;;;;5035687;28;20112;-78
2022/11/27 13:29:57;;;;;;;9.15;7.28;;;;;;;;;;5019874;28;20034;-79
2022/11/27 13:32:25;;;;;;;8.20;6.20;;;;;;;;;;5041207;28;20094;-79
2022/11/27 13:34:51;;;;;;;11.15;6.65;;;;;;;;;;5038737;28;20047;-77
2022/11/27 13:37:26;;;;;;;8.20;6.75;;;;;;;;;;5030503;28;20060;-79
2022/11/27 13:39:59;;;;;;;9.27;6.63;;;;;;;;;;5046556;28;20117;-78
2022/11/27 13:42:27;;;;;;;8.15;6.00;;;;;;;;;;5032845;28;20067;-78
2022/11/27 13:44:55;;;;;;;10.35;6.05;;;;;;;;;;5044432;28;20021;-78
2022/11/27 13:47:23;;;;;;;8.75;6.93;;;;;;;;;;5035254;28;20034;-77
2022/11/27 13:50:00;;;;;;;10.07;7.28;;;;;;;;;;5054585;28;20397;-78
2022/11/27 13:52:28;;;;;;;10.68;6.97;;;;;;;;;;5041509;28;20030;-77
2022/11/27 13:54:58;;;;;;;11.57;6.88;;;;;;;;;;5037481;28;20089;-79
2022/11/27 13:57:25;;;;;;;8.13;5.82;;;;;;;;;;5033831;28;20037;-77
2022/11/27 13:59:55;;;;;;;8.65;6.72;;;;;;;;;;5037972;28;20030;-78
2022/11/27 14:02:21;;;;;;;8.70;6.45;;;;;;;;;;5053403;28;20437;-77
2022/11/27 14:04:49;;;;;;;10.70;7.32;;;;;;;;;;5053275;28;20449;-77
2022/11/27 14:07:15;;;;;;;11.77;7.10;;;;;;;;;;5036988;28;20025;-78
2022/11/27 14:09:49;;;;;;;8.32;6.95;;;;;;;;;;5041375;28;20025;-78
2022/11/27 14:12:17;;;;;;;11.23;7.63;;;;;;;;;;5033919;28;20025;-78
2022/11/27 14:14:43;;;;;;;12.00;7.78;;;;;;;;;;5035093;28;20120;-78
2022/11/27 14:17:28;;;;;;;11.52;8.13;;;;;;;;;;5048049;28;20025;-78
2022/11/27 14:19:59;;;;;;;12.40;7.88;;;;;;;;;;5052955;28;20033;-78
2022/11/27 14:22:41;;;;;;;13.20;8.48;;;;;;;;;;5053295;28;20382;-78
2022/11/27 14:25:18;;;;;;;11.77;8.05;;;;;;;;;;5054523;28;20021;-78
2022/11/27 14:27:44;;;;;;;13.07;8.07;;;;;;;;;;5052806;28;20036;-78
2022/11/27 14:30:26;;;;;;;13.45;8.23;;;;;;;;;;5055155;28;20025;-78
2022/11/27 14:32:52;;;;;;;11.40;7.97;;;;;;;;;;5054583;28;20052;-81
2022/11/27 14:35:22;;;;;;;11.98;7.75;;;;;;;;;;5054338;28;20029;-79
2022/11/27 14:37:48;;;;;;;11.70;7.80;;;;;;;;;;5040643;28;20123;-77
2022/11/27 14:40:34;;;;;;;13.00;8.05;;;;;;;;;;5040904;28;20060;-78
2022/11/27 14:43:10;;;;;;;11.70;7.78;;;;;;;;;;5054138;28;20037;-78
2022/11/27 14:45:37;;;;;;;11.60;8.05;;;;;;;;;;5051472;28;20330;-77
2022/11/27 14:48:03;;;;;;;12.15;8.43;;;;;;;;;;5049009;28;20060;-78
2022/11/27 14:50:29;;;;;;;15.10;9.02;;;;;;;;;;5052521;28;20029;-78
2022/11/27 14:52:56;;;;;;;14.85;7.80;;;;;;;;;;5051314;28;20500;-78
2022/11/27 14:55:22;;;;;;;14.38;9.48;;;;;;;;;;5034742;28;20029;-78